Otterup, Denmark
Current Conditions -  °F | °C
As of 10:50 AM on Thursday 29 Jan 2015 (Local Time) from EKOD Reporting Station
Broken Clouds Broken Clouds  
Wind Chill: 25°   Ceiling: 3600
Heat Index: 36°   Visibility: 6mi
Dew Point: 34°   Wind: 17mph
Humidity: 93%   Direction: 190°S
Pressure: 28.85"   Gusts: NA
Location:  55.52°N, 10.4°E
Report Text: EKOD 290950Z 19015KT 9999 FEW009 BKN036 02/01 Q0977 R06/290095
Loading
Personal Weather Stations






























Interactive Weather Map New forecast layout! Learn more

10-Day Weather Forecast

Advertisements
Track Severe Weather on mobile